createdAt,value
2023-04-15T00:01:19.849Z,15.64
2023-04-15T00:03:48.195Z,15.60
2023-04-15T00:06:16.376Z,15.49
2023-04-15T00:08:43.967Z,15.34
2023-04-15T00:11:12.724Z,15.31
2023-04-15T00:13:40.458Z,15.59
2023-04-15T00:16:08.724Z,15.53
2023-04-15T00:18:36.703Z,15.55
2023-04-15T00:21:05.184Z,15.13
2023-04-15T00:23:33.137Z,15.17
2023-04-15T00:26:01.091Z,15.20
2023-04-15T00:28:29.745Z,15.20
2023-04-15T00:30:58.647Z,15.04
2023-04-15T00:33:26.335Z,14.79
2023-04-15T00:35:54.463Z,14.45
2023-04-15T00:38:22.050Z,14.48
2023-04-15T00:40:50.346Z,14.71
2023-04-15T00:43:17.914Z,14.48
2023-04-15T00:45:47.500Z,14.52
2023-04-15T00:48:16.634Z,14.46
2023-04-15T00:50:44.534Z,14.62
2023-04-15T00:53:12.587Z,14.57
2023-04-15T00:55:40.567Z,14.62
2023-04-15T00:58:08.251Z,14.47
2023-04-15T01:00:36.976Z,14.19
2023-04-15T01:03:04.617Z,14.21
2023-04-15T01:05:32.635Z,14.48
2023-04-15T01:08:00.242Z,14.49
2023-04-15T01:10:28.686Z,14.49
2023-04-15T01:12:56.199Z,14.47
2023-04-15T01:15:24.381Z,14.29
2023-04-15T01:17:52.114Z,14.36
2023-04-15T01:20:20.515Z,14.15
2023-04-15T01:22:48.933Z,14.08
2023-04-15T01:25:20.438Z,13.96
2023-04-15T01:27:48.515Z,14.11
2023-04-15T01:30:17.700Z,13.92
2023-04-15T01:32:45.358Z,14.32
2023-04-15T01:35:13.525Z,14.19
2023-04-15T01:37:41.305Z,14.07
2023-04-15T01:40:09.394Z,13.92
2023-04-15T01:42:37.672Z,13.94
2023-04-15T01:45:07.402Z,13.91
2023-04-15T01:47:35.079Z,13.96
2023-04-15T01:50:03.221Z,13.91
2023-04-15T01:52:30.738Z,13.93
2023-04-15T01:54:58.727Z,13.95
2023-04-15T01:57:26.638Z,13.84
2023-04-15T01:59:54.628Z,13.79
2023-04-15T02:02:22.561Z,13.90
2023-04-15T02:04:50.676Z,13.80
2023-04-15T02:07:18.438Z,13.87
2023-04-15T02:09:46.412Z,13.59
2023-04-15T02:12:14.399Z,13.72
2023-04-15T02:14:42.362Z,13.59
2023-04-15T02:17:09.993Z,13.55
2023-04-15T02:19:37.909Z,13.49
2023-04-15T02:22:05.589Z,13.61
2023-04-15T02:24:33.499Z,13.56
2023-04-15T02:27:02.281Z,13.71
2023-04-15T02:29:32.508Z,13.67
2023-04-15T02:32:01.931Z,13.59
2023-04-15T02:34:29.942Z,13.93
2023-04-15T02:36:59.237Z,13.73
2023-04-15T02:39:27.616Z,13.70
2023-04-15T02:41:55.553Z,13.57
2023-04-15T02:44:25.250Z,13.57
2023-04-15T02:46:58.604Z,13.70
2023-04-15T02:49:30.080Z,13.29
2023-04-15T02:51:58.409Z,13.43
2023-04-15T02:54:28.917Z,13.43
2023-04-15T02:56:56.867Z,13.41
2023-04-15T02:59:24.814Z,13.38
2023-04-15T03:01:52.689Z,13.41
2023-04-15T03:04:21.124Z,13.29
2023-04-15T03:06:48.745Z,13.09
2023-04-15T03:09:16.744Z,12.76
2023-04-15T03:11:44.605Z,12.89
2023-04-15T03:14:12.596Z,13.02
2023-04-15T03:16:43.866Z,12.81
2023-04-15T03:19:12.418Z,12.95
2023-04-15T03:21:42.876Z,12.77
2023-04-15T03:24:10.882Z,12.81
2023-04-15T03:26:38.780Z,12.98
2023-04-15T03:29:12.870Z,13.18
2023-04-15T03:31:42.159Z,13.07
2023-04-15T03:34:10.218Z,12.86
2023-04-15T03:36:38.307Z,12.80
2023-04-15T03:39:06.258Z,12.73
2023-04-15T03:41:33.975Z,12.72
2023-04-15T03:44:01.987Z,12.76
2023-04-15T03:46:29.657Z,12.82
2023-04-15T03:48:57.714Z,12.83
2023-04-15T03:51:25.359Z,12.80
2023-04-15T03:53:53.238Z,12.75
2023-04-15T03:56:20.739Z,12.91
2023-04-15T03:58:48.587Z,13.12
2023-04-15T04:01:16.701Z,13.29
2023-04-15T04:03:44.652Z,13.15
2023-04-15T04:06:12.909Z,13.01
2023-04-15T04:08:41.175Z,13.11
2023-04-15T04:11:08.788Z,12.62
2023-04-15T04:13:36.813Z,12.81
2023-04-15T04:16:05.129Z,12.76
2023-04-15T04:18:33.368Z,12.49
2023-04-15T04:21:01.334Z,12.71
2023-04-15T04:23:29.435Z,12.62
2023-04-15T04:25:57.040Z,12.34
2023-04-15T04:28:24.946Z,12.42
2023-04-15T04:30:52.709Z,12.36
2023-04-15T04:33:20.982Z,12.29
2023-04-15T04:35:48.599Z,12.46
2023-04-15T04:38:16.554Z,12.48
2023-04-15T04:40:44.398Z,12.37
2023-04-15T04:43:12.895Z,12.53
2023-04-15T04:45:40.727Z,12.81
2023-04-15T04:48:09.052Z,12.64
2023-04-15T04:50:37.229Z,12.76
2023-04-15T04:53:05.229Z,12.67
2023-04-15T04:55:32.804Z,12.32
2023-04-15T04:58:00.772Z,12.48
2023-04-15T05:00:28.359Z,12.71
2023-04-15T05:02:56.752Z,12.53
2023-04-15T05:05:24.511Z,12.40
2023-04-15T05:07:52.722Z,12.67
2023-04-15T05:10:20.371Z,12.50
2023-04-15T05:12:48.331Z,12.52
2023-04-15T05:15:16.046Z,12.51
2023-04-15T05:17:45.020Z,12.47
2023-04-15T05:20:12.944Z,12.78
2023-04-15T05:22:41.105Z,12.76
2023-04-15T05:25:08.984Z,12.72
2023-04-15T05:27:37.010Z,12.74
2023-04-15T05:30:04.796Z,13.25
2023-04-15T05:32:32.781Z,13.11
2023-04-15T05:35:00.693Z,13.07
2023-04-15T05:37:28.687Z,13.57
2023-04-15T05:39:57.140Z,13.30
2023-04-15T05:42:25.248Z,13.70
2023-04-15T05:44:52.899Z,13.36
2023-04-15T05:47:20.866Z,13.55
2023-04-15T05:49:48.454Z,13.85
2023-04-15T05:52:16.893Z,13.89
2023-04-15T05:54:44.528Z,13.90
2023-04-15T05:57:12.493Z,14.28
2023-04-15T05:59:40.075Z,14.17
2023-04-15T06:02:08.031Z,14.27
2023-04-15T06:04:35.812Z,14.35
2023-04-15T06:07:03.805Z,14.54
2023-04-15T06:09:31.365Z,14.49
2023-04-15T06:11:59.295Z,14.77
2023-04-15T06:14:26.942Z,15.09
2023-04-15T06:16:54.889Z,14.53
2023-04-15T06:19:22.464Z,14.56
2023-04-15T06:21:50.589Z,15.03
2023-04-15T06:24:18.307Z,15.23
2023-04-15T06:26:46.421Z,15.59
2023-04-15T06:29:14.383Z,15.78
2023-04-15T06:31:42.283Z,16.02
2023-04-15T06:34:09.878Z,16.15
2023-04-15T06:36:37.833Z,16.03
2023-04-15T06:39:05.410Z,16.48
2023-04-15T06:41:34.448Z,16.28
2023-04-15T06:44:02.140Z,16.36
2023-04-15T06:46:30.084Z,16.53
2023-04-15T06:48:57.676Z,16.77
2023-04-15T06:51:26.735Z,16.81
2023-04-15T06:53:54.663Z,16.82
2023-04-15T06:56:23.691Z,17.03
2023-04-15T06:58:51.412Z,17.13
2023-04-15T07:01:20.007Z,17.12
2023-04-15T07:03:48.017Z,17.37
2023-04-15T07:06:15.922Z,17.54
2023-04-15T07:08:43.894Z,17.62
2023-04-15T07:11:11.784Z,17.58
2023-04-15T07:13:39.358Z,17.67
2023-04-15T07:16:07.524Z,18.10
2023-04-15T07:18:35.234Z,17.96
2023-04-15T07:21:03.165Z,18.16
2023-04-15T07:23:30.783Z,18.40
2023-04-15T07:25:58.737Z,18.01
2023-04-15T07:28:26.341Z,18.59
2023-04-15T07:30:54.410Z,18.61
2023-04-15T07:33:22.250Z,18.52
2023-04-15T07:35:50.263Z,18.85
2023-04-15T07:38:18.128Z,18.89
2023-04-15T07:40:46.802Z,18.15
2023-04-15T07:43:14.703Z,18.70
2023-04-15T07:45:42.563Z,18.85
2023-04-15T07:48:10.081Z,18.64
2023-04-15T07:50:38.387Z,18.88
2023-04-15T07:53:06.799Z,19.03
2023-04-15T07:55:34.644Z,19.11
2023-04-15T07:58:02.254Z,19.31
2023-04-15T08:00:31.067Z,19.58
2023-04-15T08:03:00.073Z,19.42
2023-04-15T08:05:28.129Z,19.55
2023-04-15T08:07:55.689Z,19.54
2023-04-15T08:10:23.665Z,19.57
2023-04-15T08:12:54.709Z,19.80
2023-04-15T08:15:22.688Z,20.05
2023-04-15T08:17:50.676Z,19.76
2023-04-15T08:20:19.165Z,19.83
2023-04-15T08:22:52.256Z,19.53
2023-04-15T08:25:20.502Z,20.13
2023-04-15T08:27:48.205Z,20.56
2023-04-15T08:30:16.583Z,20.48
2023-04-15T08:32:47.521Z,20.32
2023-04-15T08:35:15.853Z,20.26
2023-04-15T08:37:43.419Z,20.42
2023-04-15T08:40:11.639Z,20.41
2023-04-15T08:42:43.667Z,20.45
2023-04-15T08:45:12.889Z,20.48
2023-04-15T08:47:40.721Z,20.85
2023-04-15T08:50:09.694Z,21.19
2023-04-15T08:52:37.658Z,20.04
2023-04-15T08:55:06.251Z,19.80
2023-04-15T08:57:34.053Z,19.97
2023-04-15T09:00:05.277Z,19.14
2023-04-15T09:02:33.915Z,18.90
2023-04-15T09:05:05.180Z,19.03
2023-04-15T09:07:34.490Z,19.25
2023-04-15T09:10:03.762Z,19.16
2023-04-15T09:12:31.846Z,20.13
2023-04-15T09:14:59.755Z,19.72
2023-04-15T09:17:28.154Z,19.54
2023-04-15T09:20:13.286Z,20.00
2023-04-15T09:22:41.776Z,21.17
2023-04-15T09:25:18.707Z,20.74
2023-04-15T09:27:50.602Z,20.08
2023-04-15T09:30:18.624Z,21.29
2023-04-15T09:32:59.341Z,21.75
2023-04-15T09:35:27.926Z,22.07
2023-04-15T09:38:03.301Z,22.07
2023-04-15T09:40:35.493Z,22.55
2023-04-15T09:43:03.987Z,21.33
2023-04-15T09:45:32.899Z,20.62
2023-04-15T09:48:14.999Z,20.53
2023-04-15T09:50:44.201Z,20.83
2023-04-15T09:53:15.079Z,20.15
2023-04-15T09:55:56.885Z,20.30
2023-04-15T09:58:27.676Z,20.65
2023-04-15T10:00:57.798Z,21.44
2023-04-15T10:03:27.717Z,21.30
2023-04-15T10:05:57.565Z,21.85
2023-04-15T10:08:26.327Z,22.75
2023-04-15T10:10:54.859Z,23.01
2023-04-15T10:13:24.479Z,21.49
2023-04-15T10:15:58.635Z,21.84
2023-04-15T10:18:27.437Z,21.15
2023-04-15T10:20:55.816Z,21.77
2023-04-15T10:23:24.612Z,22.47
2023-04-15T10:25:56.585Z,22.00
2023-04-15T10:28:25.119Z,21.83
2023-04-15T10:30:53.782Z,21.54
2023-04-15T10:33:23.096Z,21.13
2023-04-15T10:35:52.208Z,22.70
2023-04-15T10:38:35.179Z,23.34
2023-04-15T10:41:17.092Z,24.11
2023-04-15T10:43:48.359Z,24.54
2023-04-15T10:46:23.994Z,23.92
2023-04-15T10:48:53.035Z,23.95
2023-04-15T10:51:28.619Z,23.38
2023-04-15T10:54:00.965Z,23.77
2023-04-15T10:56:30.480Z,23.89
2023-04-15T10:59:01.864Z,23.09
2023-04-15T11:01:48.355Z,22.80
2023-04-15T11:04:36.434Z,23.04
2023-04-15T11:07:07.666Z,23.78
2023-04-15T11:09:35.297Z,23.61
2023-04-15T11:12:09.974Z,23.59
2023-04-15T11:14:42.296Z,22.84
2023-04-15T11:17:10.321Z,24.07
2023-04-15T11:19:39.247Z,24.09
2023-04-15T11:22:08.348Z,24.88
2023-04-15T11:24:36.703Z,24.82
2023-04-15T11:27:04.888Z,23.42
2023-04-15T11:29:32.583Z,23.16
2023-04-15T11:32:10.265Z,22.09
2023-04-15T11:34:38.003Z,23.33
2023-04-15T11:37:06.896Z,24.17
2023-04-15T11:39:35.097Z,24.22
2023-04-15T11:42:03.145Z,24.01
2023-04-15T11:44:30.724Z,24.31
2023-04-15T11:46:58.668Z,24.96
2023-04-15T11:49:27.359Z,25.25
2023-04-15T11:51:55.309Z,25.24
2023-04-15T11:54:22.938Z,25.54
2023-04-15T11:56:52.165Z,25.78
2023-04-15T11:59:19.796Z,25.84
2023-04-15T12:01:47.926Z,24.47
2023-04-15T12:04:18.579Z,24.65
2023-04-15T12:06:47.506Z,23.87
2023-04-15T12:09:16.806Z,24.78
2023-04-15T12:11:47.606Z,24.22
2023-04-15T12:14:25.855Z,25.19
2023-04-15T12:16:55.324Z,26.05
2023-04-15T12:19:27.727Z,25.82
2023-04-15T12:22:01.020Z,25.07
2023-04-15T12:24:31.534Z,26.23
2023-04-15T12:27:02.889Z,25.88
2023-04-15T12:29:31.013Z,26.43
2023-04-15T12:32:04.397Z,26.49
2023-04-15T12:34:33.197Z,27.16
2023-04-15T12:37:02.636Z,26.69
2023-04-15T12:39:31.530Z,26.37
2023-04-15T12:42:00.705Z,26.57
2023-04-15T12:44:28.631Z,25.54
2023-04-15T12:46:57.095Z,26.22
2023-04-15T12:49:25.098Z,26.97
2023-04-15T12:51:54.189Z,27.08
2023-04-15T12:54:22.256Z,26.98
2023-04-15T12:56:51.181Z,27.52
2023-04-15T12:59:19.028Z,27.35
2023-04-15T13:01:48.215Z,27.17
2023-04-15T13:04:16.600Z,27.20
2023-04-15T13:06:44.704Z,27.04
2023-04-15T13:09:12.393Z,27.18
2023-04-15T13:11:40.441Z,27.07
2023-04-15T13:14:08.679Z,26.09
2023-04-15T13:16:37.137Z,25.17
2023-04-15T13:19:05.089Z,24.91
2023-04-15T13:21:35.910Z,25.40
2023-04-15T13:24:05.190Z,25.51
2023-04-15T13:26:33.982Z,25.57
2023-04-15T13:29:02.089Z,25.58
2023-04-15T13:31:30.399Z,25.90
2023-04-15T13:33:58.101Z,25.92
2023-04-15T13:36:26.936Z,25.95
2023-04-15T13:38:54.717Z,25.58
2023-04-15T13:41:22.573Z,25.63
2023-04-15T13:43:50.099Z,24.80
2023-04-15T13:46:18.124Z,24.27
2023-04-15T13:48:45.832Z,24.16
2023-04-15T13:51:13.770Z,24.01
2023-04-15T13:53:41.499Z,23.12
2023-04-15T13:56:09.704Z,23.61
2023-04-15T13:58:37.866Z,23.79
2023-04-15T14:01:07.243Z,23.12
2023-04-15T14:03:36.278Z,22.88
2023-04-15T14:06:05.211Z,23.34
2023-04-15T14:08:33.196Z,23.32
2023-04-15T14:11:01.455Z,23.09
2023-04-15T14:13:29.308Z,23.07
2023-04-15T14:15:57.743Z,23.23
2023-04-15T14:18:25.532Z,23.62
2023-04-15T14:20:53.659Z,23.83
2023-04-15T14:23:21.487Z,23.34
2023-04-15T14:25:50.616Z,23.36
2023-04-15T14:28:20.275Z,23.16
2023-04-15T14:30:48.215Z,23.03
2023-04-15T14:33:16.429Z,22.83
2023-04-15T14:35:44.425Z,23.19
2023-04-15T14:38:12.015Z,22.91
2023-04-15T14:40:41.313Z,22.92
2023-04-15T14:43:08.958Z,22.71
2023-04-15T14:45:39.480Z,22.52
2023-04-15T14:48:10.152Z,22.97
2023-04-15T14:50:38.372Z,23.07
2023-04-15T14:53:06.176Z,23.41
2023-04-15T14:55:34.226Z,23.86
2023-04-15T14:58:02.662Z,23.18
2023-04-15T15:00:30.995Z,23.11
2023-04-15T15:02:58.874Z,23.44
2023-04-15T15:05:27.042Z,23.37
2023-04-15T15:07:54.819Z,23.26
2023-04-15T15:10:30.710Z,23.11
2023-04-15T15:13:10.917Z,22.66
2023-04-15T15:15:39.556Z,23.00
2023-04-15T15:18:07.240Z,22.93
2023-04-15T15:20:36.287Z,22.95
2023-04-15T15:23:03.881Z,23.03
2023-04-15T15:25:31.884Z,23.17
2023-04-15T15:27:59.572Z,22.89
2023-04-15T15:30:27.494Z,23.30
2023-04-15T15:32:55.195Z,23.26
2023-04-15T15:35:23.921Z,22.93
2023-04-15T15:37:51.781Z,22.98
2023-04-15T15:40:19.714Z,23.33
2023-04-15T15:42:50.201Z,23.56
2023-04-15T15:45:18.586Z,23.95
2023-04-15T15:47:46.426Z,23.82
2023-04-15T15:50:14.730Z,23.99
2023-04-15T15:52:42.433Z,23.65
2023-04-15T15:55:10.516Z,23.62
2023-04-15T15:57:38.228Z,23.66
2023-04-15T16:03:04.308Z,22.98
2023-04-15T16:05:25.120Z,23.00
2023-04-15T16:07:52.888Z,22.63
2023-04-15T16:10:20.961Z,22.49
2023-04-15T16:12:48.617Z,22.44
2023-04-15T16:15:16.682Z,22.68
2023-04-15T16:17:44.540Z,22.77
2023-04-15T16:20:12.565Z,22.64
2023-04-15T16:22:40.273Z,22.04
2023-04-15T16:25:08.533Z,21.95
2023-04-15T16:27:54.141Z,21.84
2023-04-15T16:30:25.132Z,21.56
2023-04-15T16:32:53.218Z,21.47
2023-04-15T16:35:21.260Z,21.50
2023-04-15T16:37:48.896Z,21.24
2023-04-15T16:40:17.146Z,21.46
2023-04-15T16:42:44.940Z,21.67
2023-04-15T16:45:12.927Z,21.61
2023-04-15T16:47:40.632Z,21.56
2023-04-15T16:50:09.394Z,21.57
2023-04-15T16:52:37.135Z,21.12
2023-04-15T16:55:05.434Z,21.15
2023-04-15T16:57:57.889Z,21.20
2023-04-15T17:00:21.422Z,21.07
2023-04-15T17:02:49.382Z,21.22
2023-04-15T17:05:18.121Z,20.99
2023-04-15T17:07:46.034Z,20.87
2023-04-15T17:10:14.289Z,20.91
2023-04-15T17:12:42.225Z,20.76
2023-04-15T17:15:11.003Z,20.80
2023-04-15T17:17:39.495Z,20.74
2023-04-15T17:20:07.956Z,20.38
2023-04-15T17:22:35.687Z,20.30
2023-04-15T17:25:04.836Z,20.13
2023-04-15T17:27:32.574Z,19.65
2023-04-15T17:30:00.634Z,19.67
2023-04-15T17:32:34.755Z,19.38
2023-04-15T17:35:08.672Z,19.23
2023-04-15T17:37:36.410Z,19.62
2023-04-15T17:40:06.734Z,19.46
2023-04-15T17:42:36.591Z,19.26
2023-04-15T17:45:04.682Z,19.28
2023-04-15T17:47:32.639Z,19.52
2023-04-15T17:50:00.869Z,19.36
2023-04-15T17:52:28.657Z,19.41
2023-04-15T17:54:56.912Z,19.36
2023-04-15T17:57:25.626Z,19.63
2023-04-15T17:59:54.431Z,19.62
2023-04-15T18:02:22.236Z,19.29
2023-04-15T18:04:50.779Z,19.29
2023-04-15T18:07:18.706Z,19.32
2023-04-15T18:09:46.855Z,19.21
2023-04-15T18:12:14.669Z,19.21
2023-04-15T18:14:42.862Z,19.23
2023-04-15T18:17:11.392Z,19.04
2023-04-15T18:19:39.387Z,18.90
2023-04-15T18:22:07.290Z,18.82
2023-04-15T18:24:35.586Z,19.04
2023-04-15T18:27:04.159Z,18.95
2023-04-15T18:29:32.962Z,19.00
2023-04-15T18:32:03.155Z,18.78
2023-04-15T18:34:31.279Z,18.84
2023-04-15T18:36:59.140Z,18.76
2023-04-15T18:39:27.755Z,18.75
2023-04-15T18:41:56.612Z,18.59
2023-04-15T18:44:24.880Z,18.51
2023-04-15T18:46:52.781Z,18.44
2023-04-15T18:49:21.124Z,18.42
2023-04-15T18:51:48.728Z,18.47
2023-04-15T18:54:16.998Z,18.31
2023-04-15T18:56:44.929Z,18.31
2023-04-15T18:59:29.167Z,18.01
2023-04-15T19:01:59.311Z,18.22
2023-04-15T19:04:29.460Z,18.40
2023-04-15T19:06:59.227Z,18.12
2023-04-15T19:09:28.598Z,18.23
2023-04-15T19:11:57.905Z,18.08
2023-04-15T19:14:26.453Z,18.36
2023-04-15T19:16:54.250Z,18.25
2023-04-15T19:19:22.467Z,18.12
2023-04-15T19:21:50.525Z,18.00
2023-04-15T19:24:18.934Z,18.05
2023-04-15T19:26:53.094Z,18.19
2023-04-15T19:29:23.116Z,18.12
2023-04-15T19:31:51.373Z,17.91
2023-04-15T19:34:19.651Z,18.02
2023-04-15T19:36:47.575Z,17.91
2023-04-15T19:39:16.492Z,17.82
2023-04-15T19:41:44.508Z,18.12
2023-04-15T19:44:15.337Z,18.18
2023-04-15T19:46:45.067Z,18.24
2023-04-15T19:49:12.917Z,18.13
2023-04-15T19:51:41.104Z,18.07
2023-04-15T19:54:09.000Z,17.95
2023-04-15T19:56:36.621Z,17.99
2023-04-15T19:59:05.352Z,18.02
2023-04-15T20:01:33.270Z,17.93
2023-04-15T20:04:03.580Z,17.76
2023-04-15T20:06:31.846Z,17.81
2023-04-15T20:08:59.815Z,17.92
2023-04-15T20:12:46.625Z,17.70
2023-04-15T20:14:18.384Z,17.86
2023-04-15T20:16:46.243Z,17.44
2023-04-15T20:19:14.826Z,17.64
2023-04-15T20:21:42.599Z,17.48
2023-04-15T20:24:11.057Z,17.59
2023-04-15T20:26:38.612Z,18.02
2023-04-15T20:29:06.674Z,17.71
2023-04-15T20:31:34.408Z,17.67
2023-04-15T20:34:02.287Z,17.50
2023-04-15T20:36:30.049Z,17.54
2023-04-15T20:38:57.910Z,17.64
2023-04-15T20:41:25.825Z,17.62
2023-04-15T20:43:53.769Z,17.69
2023-04-15T20:46:22.148Z,17.48
2023-04-15T20:48:50.690Z,17.46
2023-04-15T20:51:18.216Z,17.57
2023-04-15T20:53:46.113Z,17.24
2023-04-15T20:56:13.629Z,17.45
2023-04-15T20:58:41.573Z,17.48
2023-04-15T21:01:09.293Z,17.51
2023-04-15T21:03:37.507Z,17.58
2023-04-15T21:06:05.234Z,17.52
2023-04-15T21:08:33.164Z,17.24
2023-04-15T21:11:00.814Z,17.19
2023-04-15T21:13:28.665Z,17.26
2023-04-15T21:15:56.200Z,16.94
2023-04-15T21:18:24.100Z,17.00
2023-04-15T21:20:58.301Z,16.89
2023-04-15T21:23:26.527Z,17.08
2023-04-15T21:25:54.058Z,17.27
2023-04-15T21:28:22.254Z,16.90
2023-04-15T21:30:49.931Z,17.20
2023-04-15T21:33:18.107Z,17.28
2023-04-15T21:35:45.604Z,17.01
2023-04-15T21:38:13.546Z,17.20
2023-04-15T21:40:41.498Z,17.19
2023-04-15T21:43:09.724Z,17.05
2023-04-15T21:45:39.799Z,17.12
2023-04-15T21:48:08.511Z,17.37
2023-04-15T21:50:36.830Z,17.07
2023-04-15T21:53:05.019Z,17.21
2023-04-15T21:55:32.536Z,16.98
2023-04-15T21:58:00.529Z,17.16
2023-04-15T22:00:28.165Z,17.07
2023-04-15T22:02:56.179Z,17.26
2023-04-15T22:05:23.784Z,17.24
2023-04-15T22:07:51.763Z,16.96
2023-04-15T22:10:21.269Z,16.98
2023-04-15T22:12:49.108Z,16.96
2023-04-15T22:15:17.180Z,16.83
2023-04-15T22:17:45.580Z,17.03
2023-04-15T22:20:13.547Z,16.91
2023-04-15T22:22:44.398Z,17.32
2023-04-15T22:25:12.758Z,17.05
2023-04-15T22:27:41.030Z,17.08
2023-04-15T22:30:08.859Z,16.92
2023-04-15T22:32:37.196Z,16.86
2023-04-15T22:35:06.714Z,16.71
2023-04-15T22:37:34.612Z,16.97
2023-04-15T22:40:02.738Z,16.93
2023-04-15T22:42:30.601Z,16.89
2023-04-15T22:44:58.082Z,17.12
2023-04-15T22:47:26.034Z,17.09
2023-04-15T22:49:53.621Z,17.20
2023-04-15T22:52:30.061Z,16.87
2023-04-15T22:54:58.959Z,16.98
2023-04-15T22:57:28.028Z,17.14
2023-04-15T22:59:55.632Z,17.07
2023-04-15T23:02:23.608Z,17.06
2023-04-15T23:04:51.358Z,16.98
2023-04-15T23:07:19.389Z,16.93
2023-04-15T23:09:46.965Z,16.82
2023-04-15T23:12:14.890Z,16.63
2023-04-15T23:14:42.491Z,16.53
2023-04-15T23:17:10.525Z,16.50
2023-04-15T23:19:38.106Z,16.51
2023-04-15T23:22:07.492Z,16.40
2023-04-15T23:24:35.042Z,16.38
2023-04-15T23:27:02.938Z,16.23
2023-04-15T23:29:30.544Z,16.31
2023-04-15T23:31:58.557Z,16.53
2023-04-15T23:34:26.483Z,16.17
2023-04-15T23:36:54.389Z,16.31
2023-04-15T23:39:21.994Z,16.37
2023-04-15T23:41:49.886Z,16.23
2023-04-15T23:44:17.413Z,16.09
2023-04-15T23:46:45.257Z,16.19
2023-04-15T23:49:12.924Z,15.76
2023-04-15T23:51:41.124Z,15.55
2023-04-15T23:54:08.731Z,15.71
2023-04-15T23:56:36.829Z,15.44
2023-04-15T23:59:04.454Z,15.61
